Montchanin, Delaware
Current Conditions -  °F | °C
As of 7:32 AM on Saturday 01 Nov 2014 (Local Time) from KILG Reporting Station
Light Rain Light Rain  
Wind Chill: 38°   Ceiling: 4900
Heat Index: 46°   Visibility: 10mi
Dew Point: 42°   Wind: 20mph
Humidity: 86%   Direction: 20°NNE
Pressure: 29.79"   Gusts: 29mph
Location:  39.79°N, 75.59°W
Report Text: KILG 011132Z 02017G25KT 10SM -RA SCT015 BKN049 OVC060 08/06 A2979 RMK AO2 P0005 T00780056
Loading
Personal Weather Stations






























Interactive Weather Map
Tropical Storm Tracking
New forecast layout! Learn more

10-Day Weather Forecast

Advertisements
Track Severe Weather on mobile